Time;durP1;ratioP1;P1;durP2;ratioP2;P2;SDS_P1;SDS_P2;PMS_P1;PMS_P2;Temp;Humidity;BMP_temperature;BMP_pressure;BME280_temperature;BME280_humidity;BME280_pressure;Samples;Min_cycle;Max_cycle;Signal;HPM_P1;HPM_P2
2023/01/06 00:00:08;;;;;;;13.80;12.50;;;10.40;99.90;;;;;;5007892;28;20416;-73
2023/01/06 00:02:35;;;;;;;14.30;13.00;;;10.30;99.90;;;;;;5006407;28;20464;-73
2023/01/06 00:05:01;;;;;;;14.85;13.45;;;10.30;99.90;;;;;;5007595;28;20440;-74
2023/01/06 00:07:28;;;;;;;14.40;13.02;;;10.30;99.90;;;;;;5011122;28;20434;-73
2023/01/06 00:09:56;;;;;;;13.60;12.40;;;10.30;99.90;;;;;;5010183;28;20547;-73
2023/01/06 00:12:25;;;;;;;13.30;12.07;;;10.30;99.90;;;;;;4999576;28;20445;-73
2023/01/06 00:14:52;;;;;;;12.00;10.88;;;10.40;99.90;;;;;;4988005;28;20485;-73
2023/01/06 00:17:18;;;;;;;12.27;11.18;;;10.40;99.90;;;;;;5004521;28;20427;-73
2023/01/06 00:19:45;;;;;;;11.27;10.30;;;10.40;99.90;;;;;;5007114;28;20413;-73
2023/01/06 00:22:12;;;;;;;6.50;5.90;;;10.40;99.90;;;;;;4994229;28;20461;-73
2023/01/06 00:24:39;;;;;;;4.63;4.22;;;10.40;99.90;;;;;;5001561;28;20815;-74
2023/01/06 00:27:07;;;;;;;5.65;5.15;;;10.40;99.90;;;;;;5008012;28;20930;-73
2023/01/06 00:29:34;;;;;;;4.43;3.60;;;10.30;99.90;;;;;;5008713;28;20420;-74
2023/01/06 00:32:01;;;;;;;3.70;2.90;;;10.30;99.90;;;;;;5009238;28;20479;-73
2023/01/06 00:34:28;;;;;;;4.73;3.10;;;10.30;99.90;;;;;;5008252;28;20506;-73
2023/01/06 00:36:55;;;;;;;3.17;2.88;;;10.30;99.90;;;;;;5007953;28;20503;-73
2023/01/06 00:39:23;;;;;;;3.27;3.07;;;10.30;99.90;;;;;;5006811;28;20436;-74
2023/01/06 00:42:05;;;;;;;3.33;3.03;;;10.30;99.90;;;;;;5007883;28;20427;-73
2023/01/06 00:44:35;;;;;;;3.58;3.28;;;10.20;99.90;;;;;;4988316;28;20869;-73
2023/01/06 00:47:03;;;;;;;3.50;3.20;;;10.30;99.90;;;;;;5002576;28;20848;-73
2023/01/06 00:49:30;;;;;;;3.80;3.50;;;10.20;99.90;;;;;;5008634;28;20420;-76
2023/01/06 00:51:57;;;;;;;3.90;3.30;;;10.30;99.90;;;;;;5047316;23;20441;-73
2023/01/06 00:54:24;;;;;;;4.20;3.90;;;10.30;99.90;;;;;;5043936;28;20411;-73
2023/01/06 00:56:53;;;;;;;3.95;3.55;;;10.30;99.90;;;;;;5046971;28;20413;-72
2023/01/06 00:59:21;;;;;;;4.10;2.88;;;10.30;99.90;;;;;;5048609;28;20978;-75
2023/01/06 01:01:51;;;;;;;3.90;3.30;;;10.30;99.90;;;;;;5048731;28;20425;-73
2023/01/06 01:04:18;;;;;;;3.60;3.30;;;10.30;99.90;;;;;;5047703;28;20421;-73
2023/01/06 01:06:47;;;;;;;3.30;3.00;;;10.30;99.90;;;;;;5047121;28;20433;-74
2023/01/06 01:09:17;;;;;;;3.00;2.63;;;10.30;99.90;;;;;;5043760;28;20478;-74
2023/01/06 01:14:30;;;;;;;3.55;3.25;;;10.30;99.90;;;;;;5047872;28;20413;-75
2023/01/06 01:16:58;;;;;;;4.20;3.80;;;10.20;99.90;;;;;;5048818;28;20405;-75
2023/01/06 01:19:26;;;;;;;4.30;3.90;;;10.20;99.90;;;;;;5048722;28;20413;-74
2023/01/06 01:21:53;;;;;;;6.70;4.78;;;10.20;99.90;;;;;;5045029;28;20453;-74
2023/01/06 01:24:20;;;;;;;4.70;4.30;;;10.20;99.90;;;;;;5042294;28;21014;-73
2023/01/06 01:26:47;;;;;;;5.20;4.80;;;10.20;99.90;;;;;;5028149;28;20767;-73
2023/01/06 01:29:15;;;;;;;4.90;4.40;;;10.30;99.90;;;;;;5028389;28;20437;-73
2023/01/06 01:31:43;;;;;;;4.70;4.30;;;10.30;99.90;;;;;;5048065;28;20428;-73
2023/01/06 01:34:13;;;;;;;5.50;4.60;;;10.30;99.90;;;;;;5047130;28;20421;-74
2023/01/06 01:36:41;;;;;;;5.63;5.07;;;10.30;99.90;;;;;;5046244;28;20425;-73
2023/01/06 01:39:07;;;;;;;4.45;4.05;;;10.20;99.90;;;;;;5044380;28;20441;-74
2023/01/06 01:41:34;;;;;;;4.45;4.05;;;10.20;99.90;;;;;;5047471;28;21052;-72
2023/01/06 01:44:03;;;;;;;5.00;4.60;;;10.20;99.90;;;;;;5043061;28;20448;-72
2023/01/06 01:46:33;;;;;;;4.72;4.32;;;10.20;99.90;;;;;;5048893;28;20440;-72
2023/01/06 01:49:03;;;;;;;4.90;4.40;;;10.20;99.90;;;;;;5048043;28;20417;-73
2023/01/06 01:51:35;;;;;;;4.70;4.30;;;10.20;99.90;;;;;;5044799;28;20946;-70
2023/01/06 01:54:07;;;;;;;4.60;4.20;;;10.10;99.90;;;;;;5045463;28;20416;-71
2023/01/06 01:56:35;;;;;;;4.30;3.90;;;10.20;99.90;;;;;;5028966;28;20410;-71
2023/01/06 01:59:05;;;;;;;4.60;3.80;;;10.20;99.90;;;;;;5026237;28;20419;-70
2023/01/06 02:01:33;;;;;;;5.55;4.20;;;10.10;99.90;;;;;;5043061;28;20440;-70
2023/01/06 02:04:01;;;;;;;4.30;3.90;;;10.10;99.90;;;;;;5047911;28;20424;-72
2023/01/06 02:06:29;;;;;;;4.25;3.85;;;10.10;99.90;;;;;;5046830;28;20433;-71
2023/01/06 02:09:01;;;;;;;4.17;3.50;;;10.10;99.90;;;;;;5042437;28;20437;-72
2023/01/06 02:11:31;;;;;;;4.50;4.10;;;10.10;99.90;;;;;;5047169;28;20432;-72
2023/01/06 02:14:07;;;;;;;4.63;3.00;;;10.10;99.90;;;;;;5046130;28;20428;-74
2023/01/06 02:16:43;;;;;;;4.85;3.30;;;10.10;99.90;;;;;;5047639;28;20421;-72
2023/01/06 02:19:23;;;;;;;2.67;2.40;;;10.10;99.90;;;;;;5047676;28;20428;-72
2023/01/06 02:22:10;;;;;;;3.72;2.90;;;10.10;99.90;;;;;;5044984;28;20426;-74
2023/01/06 02:25:21;;;;;;;3.85;2.80;;;10.10;99.90;;;;;;5040124;28;20957;-71
2023/01/06 02:28:17;;;;;;;4.15;3.00;;;10.10;99.90;;;;;;5046808;28;20413;-71
2023/01/06 02:31:04;;;;;;;5.00;3.60;;;10.10;99.90;;;;;;5047510;28;20425;-73
2023/01/06 02:33:36;;;;;;;3.10;2.80;;;10.10;99.90;;;;;;5045935;28;20425;-70
2023/01/06 02:36:20;;;;;;;5.10;3.00;;;10.10;99.90;;;;;;5045620;28;20935;-71
2023/01/06 02:39:00;;;;;;;3.00;2.30;;;10.10;99.90;;;;;;5030005;28;20509;-71
2023/01/06 02:41:33;;;;;;;4.47;2.38;;;10.10;99.90;;;;;;5028948;28;20419;-72
2023/01/06 02:44:04;;;;;;;2.65;2.40;;;10.10;99.90;;;;;;5046107;28;20416;-72
2023/01/06 02:47:07;;;;;;;3.60;2.33;;;10.10;99.90;;;;;;5047410;28;20425;-73
2023/01/06 02:49:43;;;;;;;3.70;2.78;;;10.10;99.90;;;;;;5036174;28;20805;-72
2023/01/06 02:52:15;;;;;;;4.05;2.92;;;10.10;99.90;;;;;;5046004;28;20443;-72
2023/01/06 02:54:49;;;;;;;3.63;2.30;;;10.10;99.90;;;;;;5045328;28;20803;-71
2023/01/06 02:57:20;;;;;;;2.83;2.53;;;10.10;99.90;;;;;;5040583;28;20433;-73
2023/01/06 02:59:53;;;;;;;4.40;2.80;;;10.10;99.90;;;;;;5053327;28;20432;-71
2023/01/06 03:02:21;;;;;;;4.23;2.70;;;10.00;99.90;;;;;;5049835;28;20439;-71
2023/01/06 03:04:51;;;;;;;4.03;2.30;;;10.10;99.90;;;;;;5048721;28;20935;-72
2023/01/06 03:07:20;;;;;;;4.30;2.40;;;10.10;99.90;;;;;;5050820;28;20425;-72
2023/01/06 03:09:50;;;;;;;3.27;1.60;;;10.10;99.90;;;;;;5051688;28;20424;-71
2023/01/06 03:12:23;;;;;;;3.70;2.00;;;10.20;99.90;;;;;;5056771;28;20432;-73
2023/01/06 03:14:52;;;;;;;2.05;1.65;;;10.20;99.90;;;;;;5057003;28;20875;-72
2023/01/06 03:17:19;;;;;;;2.90;1.63;;;10.20;99.90;;;;;;5054995;28;20420;-74
2023/01/06 03:19:46;;;;;;;2.80;1.90;;;10.20;99.90;;;;;;5048763;28;20835;-71
2023/01/06 03:22:15;;;;;;;4.30;2.00;;;10.20;99.90;;;;;;5049474;28;20421;-71
2023/01/06 03:24:43;;;;;;;3.20;2.00;;;10.10;99.90;;;;;;5050044;28;20421;-72
2023/01/06 03:27:10;;;;;;;3.55;1.90;;;10.10;99.90;;;;;;5049795;28;20477;-71
2023/01/06 03:29:38;;;;;;;3.58;1.83;;;10.20;99.90;;;;;;5050468;28;20421;-72
2023/01/06 03:32:13;;;;;;;2.00;1.57;;;10.10;99.90;;;;;;5050074;28;20452;-71
2023/01/06 03:34:51;;;;;;;4.13;1.80;;;10.20;99.90;;;;;;5047741;28;20432;-71
2023/01/06 03:37:26;;;;;;;3.47;1.90;;;10.10;99.90;;;;;;5044128;28;20587;-72
2023/01/06 03:40:02;;;;;;;4.00;2.00;;;10.20;99.90;;;;;;5051552;28;20443;-74
2023/01/06 03:45:37;;;;;;;2.83;1.67;;;10.10;99.90;;;;;;5056551;28;20407;-72
2023/01/06 03:48:10;;;;;;;2.97;1.77;;;10.10;99.90;;;;;;5052473;28;20425;-73
2023/01/06 03:50:42;;;;;;;3.78;1.60;;;10.10;99.90;;;;;;5055910;28;20955;-73
2023/01/06 03:53:21;;;;;;;3.38;1.80;;;10.10;99.90;;;;;;5049130;28;20417;-72
2023/01/06 03:55:53;;;;;;;2.95;1.50;;;10.10;99.90;;;;;;5049986;28;20432;-73
2023/01/06 03:58:20;;;;;;;3.08;1.80;;;10.10;99.90;;;;;;5050122;28;20420;-72
2023/01/06 04:00:48;;;;;;;3.70;1.50;;;10.10;99.90;;;;;;5050014;28;20471;-72
2023/01/06 04:03:16;;;;;;;4.00;1.58;;;10.20;99.90;;;;;;5047228;28;20432;-71
2023/01/06 04:05:42;;;;;;;2.65;1.50;;;10.20;99.90;;;;;;5050150;28;20417;-70
2023/01/06 04:08:09;;;;;;;4.45;1.67;;;10.10;99.90;;;;;;5051187;28;20919;-70
2023/01/06 04:10:38;;;;;;;3.00;1.45;;;10.10;99.90;;;;;;5047982;28;20460;-73
2023/01/06 04:13:03;;;;;;;3.22;1.50;;;10.20;99.90;;;;;;5040207;28;20425;-71
2023/01/06 04:15:31;;;;;;;2.30;1.30;;;10.20;99.90;;;;;;5050862;28;20417;-72
2023/01/06 04:17:58;;;;;;;3.20;1.20;;;10.20;99.90;;;;;;5048687;28;20451;-71
2023/01/06 04:20:26;;;;;;;2.30;1.30;;;10.20;99.90;;;;;;5049584;28;20440;-71
2023/01/06 04:22:53;;;;;;;2.80;1.30;;;10.10;99.90;;;;;;5048252;28;20415;-73
2023/01/06 04:25:20;;;;;;;3.70;1.40;;;10.20;99.90;;;;;;5048774;28;20804;-73
2023/01/06 04:27:48;;;;;;;2.80;1.50;;;10.20;99.90;;;;;;5049305;28;20428;-72
2023/01/06 04:30:15;;;;;;;2.20;1.20;;;10.20;99.90;;;;;;5049142;28;20421;-73
2023/01/06 04:32:42;;;;;;;1.50;1.08;;;10.20;99.90;;;;;;5048223;28;20925;-72
2023/01/06 04:35:10;;;;;;;1.98;1.17;;;10.20;99.90;;;;;;5038394;28;20415;-72
2023/01/06 04:37:37;;;;;;;2.40;1.20;;;10.30;99.90;;;;;;5042091;28;21042;-73
2023/01/06 04:40:06;;;;;;;2.60;1.00;;;10.30;99.90;;;;;;5048920;28;20409;-73
2023/01/06 04:43:03;;;;;;;2.30;1.00;;;10.40;98.90;;;;;;5050357;28;20867;-71
2023/01/06 04:45:21;;;;;;;1.98;1.10;;;10.40;99.30;;;;;;5054714;28;20476;-71
2023/01/06 04:47:48;;;;;;;1.50;1.10;;;10.40;98.80;;;;;;5053400;28;20429;-73
2023/01/06 04:50:15;;;;;;;1.40;0.90;;;10.40;98.60;;;;;;5055223;28;20420;-71
2023/01/06 04:52:41;;;;;;;1.75;1.15;;;10.40;98.40;;;;;;5054036;28;20520;-72
2023/01/06 04:55:09;;;;;;;1.80;0.85;;;10.40;97.90;;;;;;5049533;28;20421;-72
2023/01/06 04:57:36;;;;;;;3.25;1.15;;;10.50;97.80;;;;;;5049981;28;20891;-73
2023/01/06 05:00:03;;;;;;;2.38;0.90;;;10.50;97.20;;;;;;5049123;28;20413;-71
2023/01/06 05:02:31;;;;;;;2.80;1.20;;;10.50;97.00;;;;;;5047817;28;20419;-71
2023/01/06 05:04:58;;;;;;;2.70;1.00;;;10.50;96.80;;;;;;5042429;28;20425;-72
2023/01/06 05:07:24;;;;;;;2.77;0.90;;;10.60;95.80;;;;;;5043616;28;21179;-72
2023/01/06 05:09:51;;;;;;;1.37;0.80;;;10.60;95.40;;;;;;5045274;28;20436;-71
2023/01/06 05:12:18;;;;;;;1.73;0.90;;;10.60;95.40;;;;;;5046989;28;20437;-73
2023/01/06 05:14:45;;;;;;;2.70;0.80;;;10.60;96.40;;;;;;5044353;28;20436;-71
2023/01/06 05:17:12;;;;;;;1.30;0.70;;;10.60;95.80;;;;;;5043866;28;20433;-73
2023/01/06 05:19:43;;;;;;;2.60;1.00;;;10.60;95.80;;;;;;5048083;28;20429;-72
2023/01/06 05:22:10;;;;;;;2.15;0.80;;;10.60;96.00;;;;;;5048968;28;20425;-71
2023/01/06 05:24:37;;;;;;;1.83;0.80;;;10.60;96.10;;;;;;5049494;28;20968;-72
2023/01/06 05:27:04;;;;;;;1.77;1.10;;;10.60;96.30;;;;;;5049414;28;20820;-71
2023/01/06 05:29:31;;;;;;;1.50;0.85;;;10.60;95.80;;;;;;5040090;28;20444;-73
2023/01/06 05:31:58;;;;;;;2.60;0.90;;;10.60;95.70;;;;;;5045776;28;20429;-72
2023/01/06 05:34:25;;;;;;;1.80;0.95;;;10.50;96.00;;;;;;5045459;28;20433;-72
2023/01/06 05:36:53;;;;;;;1.95;1.10;;;10.60;96.30;;;;;;5051594;28;20413;-71
2023/01/06 05:39:20;;;;;;;2.20;1.00;;;10.60;96.10;;;;;;5038606;28;20405;-72
2023/01/06 05:41:47;;;;;;;2.33;1.00;;;10.60;96.00;;;;;;5042185;28;20442;-71
2023/01/06 05:44:14;;;;;;;2.63;1.10;;;10.50;96.00;;;;;;5042136;28;20468;-72
2023/01/06 05:46:41;;;;;;;2.67;1.10;;;10.50;95.60;;;;;;5045379;28;20462;-71
2023/01/06 05:49:09;;;;;;;1.77;0.90;;;10.50;96.00;;;;;;5043104;28;20429;-72
2023/01/06 05:51:36;;;;;;;2.10;1.10;;;10.50;96.10;;;;;;5045342;28;20437;-71
2023/01/06 05:54:08;;;;;;;1.30;0.90;;;10.50;96.00;;;;;;5045461;28;20788;-74
2023/01/06 05:56:34;;;;;;;1.55;1.02;;;10.50;96.10;;;;;;5045617;28;20437;-72
2023/01/06 05:59:02;;;;;;;2.53;1.40;;;10.40;96.00;;;;;;5047536;28;20420;-73
2023/01/06 06:01:31;;;;;;;2.17;1.20;;;10.40;96.30;;;;;;5047585;28;20425;-72
2023/01/06 06:03:58;;;;;;;2.70;1.20;;;10.40;96.40;;;;;;5044296;28;20800;-73
2023/01/06 06:06:27;;;;;;;1.92;1.20;;;10.40;96.40;;;;;;5052268;28;20419;-73
2023/01/06 06:08:53;;;;;;;2.70;1.10;;;10.50;96.70;;;;;;5050476;28;20930;-73
2023/01/06 06:11:22;;;;;;;3.28;1.40;;;10.50;95.50;;;;;;5051595;28;20430;-71
2023/01/06 06:13:50;;;;;;;2.80;1.50;;;10.50;95.70;;;;;;5051010;28;20413;-72
2023/01/06 06:16:18;;;;;;;1.60;1.20;;;10.50;95.30;;;;;;5051922;28;20421;-73
2023/01/06 06:18:49;;;;;;;2.55;1.25;;;10.60;95.80;;;;;;5046214;28;20452;-72
2023/01/06 06:21:17;;;;;;;1.92;1.20;;;10.50;95.10;;;;;;5044622;28;20417;-71
2023/01/06 06:23:44;;;;;;;1.58;1.00;;;10.50;94.70;;;;;;5032612;28;20448;-71
2023/01/06 06:26:12;;;;;;;2.17;0.90;;;10.50;94.80;;;;;;5046561;28;20428;-73
2023/01/06 06:28:40;;;;;;;3.00;0.70;;;10.60;94.20;;;;;;5046936;28;20830;-72
2023/01/06 06:31:10;;;;;;;1.70;0.90;;;10.60;94.30;;;;;;5046451;28;20425;-72
2023/01/06 06:33:37;;;;;;;2.30;1.00;;;10.70;94.10;;;;;;5043721;28;20446;-72
2023/01/06 06:36:08;;;;;;;1.15;0.90;;;10.70;93.80;;;;;;5048654;28;20441;-73
2023/01/06 06:38:35;;;;;;;1.45;0.90;;;10.70;94.20;;;;;;5047910;28;20437;-71
2023/01/06 06:41:02;;;;;;;2.00;1.60;;;10.70;94.00;;;;;;5053139;28;20784;-72
2023/01/06 06:43:29;;;;;;;2.80;1.00;;;10.60;94.20;;;;;;5044251;28;20447;-72
2023/01/06 06:45:57;;;;;;;1.40;0.63;;;10.70;93.80;;;;;;5044473;28;20426;-73
2023/01/06 06:48:24;;;;;;;1.80;0.90;;;10.70;93.90;;;;;;5050595;28;20500;-74
2023/01/06 06:50:57;;;;;;;1.90;0.80;;;10.70;93.80;;;;;;5048488;28;20925;-73
2023/01/06 06:53:24;;;;;;;2.03;0.80;;;10.70;94.00;;;;;;5051355;28;20445;-73
2023/01/06 06:55:51;;;;;;;2.90;0.90;;;10.70;94.50;;;;;;5050954;28;20444;-73
2023/01/06 06:58:18;;;;;;;1.60;0.90;;;10.80;93.90;;;;;;5052455;28;20408;-73
2023/01/06 07:00:45;;;;;;;1.70;0.80;;;10.80;93.90;;;;;;5046904;28;20428;-73
2023/01/06 07:03:13;;;;;;;1.30;0.70;;;10.80;94.00;;;;;;5052707;28;20445;-73
2023/01/06 07:05:42;;;;;;;1.08;0.80;;;10.70;94.20;;;;;;5055594;28;20425;-73
2023/01/06 07:08:08;;;;;;;1.40;0.80;;;10.80;94.20;;;;;;5052910;28;20424;-73
2023/01/06 07:10:35;;;;;;;1.83;0.90;;;10.80;94.30;;;;;;5052849;28;20432;-72
2023/01/06 07:13:02;;;;;;;2.13;0.88;;;10.80;94.30;;;;;;5051389;28;20507;-73
2023/01/06 07:15:29;;;;;;;1.80;1.23;;;10.80;94.30;;;;;;5041994;28;20424;-73
2023/01/06 07:17:59;;;;;;;1.42;0.90;;;10.80;94.20;;;;;;5045294;28;20433;-72
2023/01/06 07:20:27;;;;;;;1.20;0.80;;;10.80;93.90;;;;;;5052225;28;20430;-73
2023/01/06 07:22:54;;;;;;;1.10;0.70;;;10.80;94.20;;;;;;5053102;28;20436;-73
2023/01/06 07:25:21;;;;;;;1.43;0.80;;;10.80;93.50;;;;;;5054408;28;20787;-72
2023/01/06 07:27:52;;;;;;;1.40;0.90;;;10.80;93.50;;;;;;5053055;28;20475;-73
2023/01/06 07:30:19;;;;;;;1.30;0.80;;;10.80;93.60;;;;;;5054785;28;20787;-74
2023/01/06 07:32:46;;;;;;;1.63;0.90;;;10.80;93.80;;;;;;5068244;23;20443;-73
2023/01/06 07:35:12;;;;;;;2.20;0.88;;;10.80;93.90;;;;;;5045394;28;20530;-74
2023/01/06 07:37:41;;;;;;;1.23;0.90;;;10.80;93.40;;;;;;5049089;28;20437;-74
2023/01/06 07:40:09;;;;;;;1.50;1.20;;;10.70;93.80;;;;;;5051504;28;20547;-74
2023/01/06 07:42:36;;;;;;;2.50;1.10;;;10.70;93.60;;;;;;5041725;28;21095;-74
2023/01/06 07:45:03;;;;;;;1.27;0.77;;;10.80;93.40;;;;;;5065223;28;20464;-73
2023/01/06 07:47:30;;;;;;;1.67;0.70;;;10.80;93.40;;;;;;5049250;28;20429;-73
2023/01/06 07:49:56;;;;;;;1.50;0.80;;;10.80;93.90;;;;;;5051944;28;20779;-73
2023/01/06 07:52:23;;;;;;;0.90;0.68;;;10.80;93.50;;;;;;5057867;28;20417;-72
2023/01/06 07:54:51;;;;;;;2.40;1.00;;;10.80;93.40;;;;;;5066770;28;20415;-73
2023/01/06 07:57:18;;;;;;;2.13;0.80;;;10.80;93.80;;;;;;5068997;28;20443;-73
2023/01/06 07:59:45;;;;;;;1.30;0.90;;;10.80;93.90;;;;;;5058372;28;20435;-73
2023/01/06 08:02:12;;;;;;;1.00;0.80;;;10.80;94.10;;;;;;5042552;28;20433;-73
2023/01/06 08:04:38;;;;;;;1.60;0.95;;;10.80;94.00;;;;;;5049863;28;20473;-73
2023/01/06 08:07:05;;;;;;;1.10;0.90;;;10.80;93.90;;;;;;5048161;28;20444;-73
2023/01/06 08:09:32;;;;;;;1.20;0.80;;;10.80;94.10;;;;;;5048381;28;20828;-73
2023/01/06 08:12:00;;;;;;;1.60;0.80;;;10.80;94.10;;;;;;5040889;28;20444;-73
2023/01/06 08:14:27;;;;;;;1.27;0.90;;;10.80;93.90;;;;;;5042619;28;20477;-65
2023/01/06 08:16:54;;;;;;;1.50;0.80;;;10.80;94.20;;;;;;5040100;28;20542;-73
2023/01/06 08:19:20;;;;;;;1.75;0.73;;;10.80;94.30;;;;;;5041285;28;20424;-74
2023/01/06 08:21:47;;;;;;;1.52;0.80;;;10.80;94.10;;;;;;5048911;28;20975;-72
2023/01/06 08:24:14;;;;;;;1.40;0.90;;;10.80;94.10;;;;;;5049787;28;20440;-72
2023/01/06 08:26:41;;;;;;;1.50;0.70;;;10.90;94.30;;;;;;5051185;28;20440;-72
2023/01/06 08:29:09;;;;;;;2.00;0.70;;;10.80;94.20;;;;;;5049771;28;20660;-74
2023/01/06 08:31:36;;;;;;;1.30;0.80;;;10.80;94.40;;;;;;5049767;28;20783;-74
2023/01/06 08:34:04;;;;;;;1.20;0.68;;;10.90;94.20;;;;;;5056759;28;20412;-72
2023/01/06 08:36:31;;;;;;;1.40;0.60;;;10.90;94.00;;;;;;5056057;28;20536;-72
2023/01/06 08:38:58;;;;;;;2.70;0.70;;;10.90;93.90;;;;;;5051911;28;20476;-72
2023/01/06 08:41:25;;;;;;;1.70;0.60;;;11.00;94.20;;;;;;5038454;28;20434;-74
2023/01/06 08:43:52;;;;;;;1.35;0.60;;;10.90;94.50;;;;;;5052470;28;20435;-72
2023/01/06 08:46:20;;;;;;;0.80;0.55;;;11.00;94.50;;;;;;5048279;28;20439;-72
2023/01/06 08:48:47;;;;;;;1.48;0.70;;;11.00;94.30;;;;;;5052614;28;20439;-72
2023/01/06 08:51:17;;;;;;;1.00;0.60;;;11.00;94.20;;;;;;5056355;28;20444;-72
2023/01/06 08:53:44;;;;;;;1.50;0.50;;;11.00;94.10;;;;;;5059783;28;20421;-74
2023/01/06 08:56:14;;;;;;;0.85;0.60;;;11.00;94.10;;;;;;5058741;28;20532;-75
2023/01/06 08:58:42;;;;;;;0.70;0.52;;;11.00;94.10;;;;;;5057320;28;20460;-76
2023/01/06 09:01:16;;;;;;;2.13;0.55;;;11.00;94.30;;;;;;5047835;28;20443;-75
2023/01/06 09:03:44;;;;;;;2.30;1.00;;;11.00;94.30;;;;;;5051465;28;20423;-73
2023/01/06 09:06:11;;;;;;;0.80;0.60;;;11.20;94.90;;;;;;5054473;28;20466;-74
2023/01/06 09:08:38;;;;;;;1.05;0.60;;;11.30;94.00;;;;;;5051366;28;20437;-72
2023/01/06 09:11:06;;;;;;;2.20;0.70;;;11.30;94.20;;;;;;5048885;28;20977;-74
2023/01/06 09:13:32;;;;;;;1.10;0.80;;;11.30;93.80;;;;;;5053344;28;20527;-74
2023/01/06 09:15:59;;;;;;;0.80;0.65;;;11.30;93.40;;;;;;5048265;28;20433;-74
2023/01/06 09:18:26;;;;;;;1.10;0.70;;;11.30;93.70;;;;;;5043358;28;20436;-74
2023/01/06 09:20:54;;;;;;;1.33;0.90;;;11.30;93.80;;;;;;5046067;28;20452;-74
2023/01/06 09:23:22;;;;;;;1.80;0.80;;;11.30;94.00;;;;;;5054781;28;20445;-73
2023/01/06 09:25:49;;;;;;;0.80;0.52;;;11.40;94.20;;;;;;5046411;28;20536;-73
2023/01/06 09:28:16;;;;;;;1.30;0.80;;;11.40;93.70;;;;;;5044903;28;20489;-74
2023/01/06 09:30:45;;;;;;;1.08;0.70;;;11.40;93.70;;;;;;5052803;28;22400;-74
2023/01/06 09:33:12;;;;;;;0.80;0.50;;;11.50;93.70;;;;;;5041120;28;20433;-74
2023/01/06 09:35:38;;;;;;;1.73;0.70;;;11.60;93.70;;;;;;5044688;28;20433;-72
2023/01/06 09:38:06;;;;;;;3.03;1.05;;;11.60;94.20;;;;;;5044456;28;20538;-74
2023/01/06 09:40:49;;;;;;;3.30;0.80;;;11.60;95.30;;;;;;5040268;28;20555;-72
2023/01/06 09:43:26;;;;;;;1.10;0.60;;;11.40;95.60;;;;;;5041818;28;20445;-73
2023/01/06 09:45:57;;;;;;;2.15;0.50;;;11.30;95.80;;;;;;5041951;28;20443;-74
2023/01/06 09:48:29;;;;;;;1.27;0.77;;;11.20;96.10;;;;;;5039660;28;20444;-73
2023/01/06 09:50:59;;;;;;;1.80;0.63;;;11.30;96.40;;;;;;5046760;28;20439;-73
2023/01/06 09:53:33;;;;;;;1.08;0.60;;;11.30;96.30;;;;;;5046118;28;20441;-72
2023/01/06 09:56:03;;;;;;;1.73;0.80;;;11.40;95.60;;;;;;5060099;28;20456;-72
2023/01/06 09:58:35;;;;;;;1.73;0.50;;;11.40;96.10;;;;;;5065706;28;20504;-74
2023/01/06 10:01:07;;;;;;;1.30;0.60;;;11.40;96.30;;;;;;5062205;28;20411;-72
2023/01/06 10:03:34;;;;;;;0.95;0.68;;;11.40;96.20;;;;;;5053960;28;20961;-72
2023/01/06 10:06:14;;;;;;;1.40;0.60;;;11.40;96.70;;;;;;5053611;28;20515;-72
2023/01/06 10:08:50;;;;;;;6.25;1.50;;;11.40;96.70;;;;;;5046417;28;20441;-72
2023/01/06 10:11:25;;;;;;;2.28;0.80;;;11.50;96.50;;;;;;5050621;28;20444;-72
2023/01/06 10:14:02;;;;;;;1.23;0.50;;;11.60;96.00;;;;;;5067418;28;20434;-73
2023/01/06 10:16:39;;;;;;;1.38;0.50;;;11.70;95.50;;;;;;5059914;28;20516;-74
2023/01/06 10:19:17;;;;;;;1.50;0.60;;;11.70;95.20;;;;;;5051216;28;20452;-74
2023/01/06 10:21:50;;;;;;;1.33;0.52;;;11.70;95.20;;;;;;5047469;28;20530;-73
2023/01/06 10:24:37;;;;;;;1.00;0.60;;;11.70;96.80;;;;;;5063207;28;20420;-73
2023/01/06 10:27:20;;;;;;;1.00;0.80;;;11.50;98.70;;;;;;5053790;28;20445;-73
2023/01/06 10:29:51;;;;;;;1.80;0.70;;;11.30;99.90;;;;;;5041921;28;20423;-74
2023/01/06 10:32:17;;;;;;;1.00;0.50;;;11.00;99.90;;;;;;5044285;28;20757;-72
2023/01/06 10:34:46;;;;;;;3.50;0.70;;;10.90;99.90;;;;;;5042780;28;20437;-72
2023/01/06 10:37:19;;;;;;;1.80;0.73;;;10.80;99.90;;;;;;5040448;28;20440;-72
2023/01/06 10:39:51;;;;;;;1.40;0.70;;;10.80;99.90;;;;;;5040192;28;20475;-74
2023/01/06 10:45:11;;;;;;;0.80;0.70;;;10.80;99.90;;;;;;5054375;28;20474;-73
2023/01/06 10:47:39;;;;;;;1.50;0.85;;;10.80;99.90;;;;;;5062628;28;20447;-72
2023/01/06 10:50:07;;;;;;;1.90;0.80;;;10.80;99.90;;;;;;5047114;28;20437;-72
2023/01/06 10:52:35;;;;;;;1.00;0.43;;;10.80;99.90;;;;;;5045014;28;20441;-72
2023/01/06 10:55:06;;;;;;;2.10;0.80;;;10.90;99.90;;;;;;5043350;28;20432;-71
2023/01/06 10:57:38;;;;;;;1.40;0.60;;;11.00;99.90;;;;;;5053834;28;20409;-71
2023/01/06 11:00:15;;;;;;;1.30;0.60;;;11.10;99.90;;;;;;5051706;28;20537;-73
2023/01/06 11:02:43;;;;;;;0.68;0.40;;;11.10;99.90;;;;;;5051777;28;20512;-71
2023/01/06 11:05:14;;;;;;;1.20;0.50;;;11.20;99.90;;;;;;5059911;28;20427;-71
2023/01/06 11:07:47;;;;;;;0.90;0.60;;;11.30;99.90;;;;;;5054182;28;20439;-72
2023/01/06 11:10:28;;;;;;;0.90;0.50;;;11.50;99.90;;;;;;5056328;28;21080;-81
2023/01/06 11:12:58;;;;;;;0.70;0.50;;;11.70;99.90;;;;;;5048021;28;20898;-73
2023/01/06 11:15:34;;;;;;;1.50;0.60;;;11.90;99.70;;;;;;5049295;28;20449;-73
2023/01/06 11:18:02;;;;;;;1.30;0.50;;;12.00;97.90;;;;;;5049069;28;20418;-74
2023/01/06 11:20:31;;;;;;;0.80;0.60;;;12.10;98.10;;;;;;5045763;28;20768;-73
2023/01/06 11:23:13;;;;;;;0.80;0.40;;;12.30;97.80;;;;;;5050425;28;20475;-74
2023/01/06 11:25:41;;;;;;;0.75;0.50;;;12.30;96.00;;;;;;5049475;28;20895;-73
2023/01/06 11:28:18;;;;;;;0.80;0.45;;;12.30;96.70;;;;;;5051933;28;20447;-72
2023/01/06 11:30:49;;;;;;;0.93;0.55;;;12.30;96.20;;;;;;5048760;28;20444;-74
2023/01/06 11:33:20;;;;;;;0.88;0.60;;;12.20;96.80;;;;;;5051022;28;20442;-72
2023/01/06 11:35:48;;;;;;;1.38;0.70;;;12.20;96.60;;;;;;5055546;28;20460;-75
2023/01/06 11:38:16;;;;;;;0.80;0.50;;;12.10;97.10;;;;;;5049133;28;20471;-72
2023/01/06 11:40:47;;;;;;;2.80;1.00;;;12.10;96.50;;;;;;5049504;28;20455;-72
2023/01/06 11:43:17;;;;;;;2.40;0.50;;;12.00;97.20;;;;;;5054844;28;20415;-72
2023/01/06 11:45:47;;;;;;;0.80;0.50;;;12.00;97.40;;;;;;5056216;28;20435;-73
2023/01/06 11:48:17;;;;;;;0.70;0.50;;;12.00;97.10;;;;;;5054288;28;20429;-73
2023/01/06 11:50:52;;;;;;;1.45;0.60;;;11.90;97.60;;;;;;5050078;28;20405;-73
2023/01/06 11:53:23;;;;;;;0.80;0.40;;;11.90;98.90;;;;;;5048350;28;20433;-73
2023/01/06 11:56:01;;;;;;;1.00;0.50;;;11.70;99.60;;;;;;5050568;28;20481;-76
2023/01/06 11:58:38;;;;;;;4.10;0.95;;;11.50;99.90;;;;;;5049791;28;20436;-73
2023/01/06 12:01:11;;;;;;;1.92;0.60;;;11.20;99.90;;;;;;5053709;28;20427;-74
2023/01/06 12:03:41;;;;;;;0.80;0.57;;;11.00;99.90;;;;;;5051583;28;20492;-75
2023/01/06 12:06:20;;;;;;;2.47;0.80;;;10.80;99.90;;;;;;5053967;28;20433;-73
2023/01/06 12:08:54;;;;;;;1.60;0.85;;;10.80;99.90;;;;;;5040566;28;20429;-75
2023/01/06 12:11:34;;;;;;;11.10;2.33;;;10.80;99.90;;;;;;5038767;28;20455;-74
2023/01/06 12:14:01;;;;;;;2.60;1.20;;;10.80;99.90;;;;;;5041091;28;21079;-73
2023/01/06 12:16:36;;;;;;;1.10;0.70;;;10.80;99.90;;;;;;5043440;28;20976;-75
2023/01/06 12:19:13;;;;;;;1.70;0.90;;;10.80;99.90;;;;;;5046846;28;20475;-74
2023/01/06 12:21:41;;;;;;;1.30;0.50;;;10.80;99.90;;;;;;5049962;28;20434;-74
2023/01/06 12:24:13;;;;;;;1.30;0.68;;;10.70;99.90;;;;;;5056373;28;20473;-73
2023/01/06 12:26:43;;;;;;;1.75;0.60;;;10.70;99.90;;;;;;5032055;28;20451;-75
2023/01/06 12:29:17;;;;;;;2.78;1.00;;;10.70;99.90;;;;;;5048531;28;20512;-74
2023/01/06 12:31:51;;;;;;;0.80;0.70;;;10.70;99.90;;;;;;5050915;28;20429;-74
2023/01/06 12:34:23;;;;;;;1.15;0.80;;;10.70;99.90;;;;;;5042307;28;20429;-74
2023/01/06 12:36:55;;;;;;;1.80;0.82;;;10.80;99.90;;;;;;5044407;28;20421;-74
2023/01/06 12:39:30;;;;;;;1.10;1.00;;;10.80;99.90;;;;;;5053729;28;20411;-74
2023/01/06 12:42:03;;;;;;;1.40;0.80;;;10.90;99.90;;;;;;5054337;28;21216;-74
2023/01/06 12:44:39;;;;;;;1.60;1.00;;;10.90;99.90;;;;;;5049087;28;20425;-74
2023/01/06 12:47:14;;;;;;;2.60;1.50;;;10.90;99.90;;;;;;5050606;28;20420;-75
2023/01/06 12:49:48;;;;;;;2.30;2.10;;;10.90;99.90;;;;;;5058042;28;20431;-74
2023/01/06 12:52:19;;;;;;;2.45;1.92;;;10.90;99.90;;;;;;5048668;28;21194;-74
2023/01/06 12:54:51;;;;;;;2.25;2.00;;;11.00;99.90;;;;;;5048243;28;20504;-76
2023/01/06 12:57:36;;;;;;;1.40;1.15;;;11.30;99.90;;;;;;5043661;28;20452;-74
2023/01/06 13:00:31;;;;;;;1.33;0.90;;;12.10;99.90;;;;;;5042217;28;20433;-74
2023/01/06 13:03:35;;;;;;;1.50;1.00;;;12.00;99.90;;;;;;5061224;28;20503;-74
2023/01/06 13:06:14;;;;;;;2.25;1.13;;;11.80;99.90;;;;;;5050469;28;20437;-74
2023/01/06 13:09:10;;;;;;;1.60;1.00;;;11.50;99.90;;;;;;5056233;28;20443;-73